Time;durP1;ratioP1;P1;durP2;ratioP2;P2;SDS_P1;SDS_P2;PMS_P1;PMS_P2;Temp;Humidity;BMP_temperature;BMP_pressure;BME280_temperature;BME280_humidity;BME280_pressure;Samples;Min_cycle;Max_cycle;Signal;HPM_P1;HPM_P2
2024/01/16 00:01:05;;;;;;;5.97;4.05;;;23.90;59.10;;;;;;6208577;28;83834;-60
2024/01/16 00:04:09;;;;;;;4.45;3.72;;;23.90;59.10;;;;;;6211123;28;84047;-60
2024/01/16 00:07:11;;;;;;;4.80;3.80;;;23.90;59.20;;;;;;6211729;28;84321;-61
2024/01/16 00:10:13;;;;;;;4.93;3.95;;;23.90;59.20;;;;;;6208523;28;83691;-61
2024/01/16 00:13:15;;;;;;;5.70;4.60;;;23.90;59.40;;;;;;6202979;28;83980;-60
2024/01/16 00:16:17;;;;;;;5.90;4.40;;;23.80;59.40;;;;;;6211203;28;84114;-61
2024/01/16 00:19:20;;;;;;;5.10;4.43;;;23.80;59.30;;;;;;6203817;28;85139;-61
2024/01/16 00:22:22;;;;;;;4.75;4.00;;;23.80;59.50;;;;;;6212212;28;83347;-61
2024/01/16 00:25:24;;;;;;;4.57;3.90;;;23.80;59.50;;;;;;6204682;28;83996;-61
2024/01/16 00:28:26;;;;;;;4.70;4.18;;;23.80;59.60;;;;;;6197225;28;84398;-60
2024/01/16 00:31:28;;;;;;;5.32;4.28;;;23.80;59.70;;;;;;6207934;28;84911;-60
2024/01/16 00:34:32;;;;;;;5.18;4.10;;;23.70;59.70;;;;;;6210685;28;84034;-61
2024/01/16 00:37:34;;;;;;;8.20;4.65;;;23.70;59.70;;;;;;6207837;28;84003;-61
2024/01/16 00:40:36;;;;;;;5.38;4.32;;;23.70;59.80;;;;;;6201411;28;83852;-61
2024/01/16 00:43:38;;;;;;;4.65;4.15;;;23.70;59.90;;;;;;6213854;28;84158;-60
2024/01/16 00:46:40;;;;;;;4.20;3.78;;;23.70;59.90;;;;;;6200042;28;84053;-61
2024/01/16 00:49:43;;;;;;;5.10;4.15;;;23.70;60.00;;;;;;6206243;28;84044;-61
2024/01/16 00:52:45;;;;;;;4.57;3.95;;;23.70;60.00;;;;;;6204622;28;83256;-60
2024/01/16 00:55:47;;;;;;;4.68;3.80;;;23.70;60.00;;;;;;6201082;28;84000;-61
2024/01/16 00:58:49;;;;;;;6.32;4.40;;;23.60;60.10;;;;;;6210507;28;83910;-60
2024/01/16 01:01:51;;;;;;;7.00;4.53;;;23.60;60.10;;;;;;6207095;28;84761;-60
2024/01/16 01:04:55;;;;;;;4.13;3.70;;;23.60;60.20;;;;;;6206428;28;84058;-60
2024/01/16 01:07:57;;;;;;;5.95;4.18;;;23.70;60.30;;;;;;6186102;28;82907;-60
2024/01/16 01:10:59;;;;;;;5.72;4.15;;;23.60;60.30;;;;;;6204631;28;84006;-59
2024/01/16 01:14:01;;;;;;;3.90;3.53;;;23.60;60.20;;;;;;6209886;28;82946;-61
2024/01/16 01:17:03;;;;;;;4.28;3.85;;;23.60;60.20;;;;;;6212019;28;82898;-60
2024/01/16 01:20:09;;;;;;;4.03;3.53;;;23.60;60.30;;;;;;6202737;28;84013;-61
2024/01/16 01:23:11;;;;;;;4.40;3.65;;;23.60;60.30;;;;;;6205754;28;83694;-60
2024/01/16 01:26:14;;;;;;;4.00;3.60;;;23.60;60.40;;;;;;6209261;28;84030;-61
2024/01/16 01:29:17;;;;;;;4.30;3.42;;;23.60;60.40;;;;;;6207622;28;84074;-60
2024/01/16 01:32:19;;;;;;;5.82;3.88;;;23.60;60.50;;;;;;6203580;28;85537;-60
2024/01/16 01:35:22;;;;;;;3.80;3.38;;;23.60;60.40;;;;;;6215572;28;83991;-60
2024/01/16 01:38:24;;;;;;;5.65;3.85;;;23.60;60.50;;;;;;6203310;28;83176;-60
2024/01/16 01:41:29;;;;;;;3.78;3.22;;;23.60;60.40;;;;;;6207933;28;84124;-61
2024/01/16 01:44:31;;;;;;;3.67;3.33;;;23.60;60.40;;;;;;6205955;28;84063;-60
2024/01/16 01:47:33;;;;;;;3.85;3.22;;;23.50;60.30;;;;;;6206875;28;83910;-61
2024/01/16 01:50:36;;;;;;;3.40;3.10;;;23.60;60.50;;;;;;6210192;28;84019;-60
2024/01/16 01:53:40;;;;;;;3.80;3.20;;;23.50;60.40;;;;;;6204873;28;83356;-60
2024/01/16 01:56:44;;;;;;;5.95;3.70;;;23.50;60.40;;;;;;6198586;28;84193;-60
2024/01/16 01:59:46;;;;;;;4.72;3.60;;;23.50;60.50;;;;;;6201948;28;83993;-60
2024/01/16 02:02:48;;;;;;;4.30;3.22;;;23.40;60.40;;;;;;6209433;28;85025;-60
2024/01/16 02:05:52;;;;;;;3.45;2.90;;;23.50;60.40;;;;;;6209332;28;82856;-61
2024/01/16 02:08:54;;;;;;;4.10;3.05;;;23.50;60.50;;;;;;6192801;28;83949;-61
2024/01/16 02:11:56;;;;;;;4.47;3.45;;;23.50;60.50;;;;;;6215201;28;83958;-60
2024/01/16 02:14:58;;;;;;;4.70;3.15;;;23.50;60.50;;;;;;6205227;28;84266;-60
2024/01/16 02:18:00;;;;;;;3.58;3.08;;;23.40;60.50;;;;;;6207519;28;82871;-60
2024/01/16 02:21:06;;;;;;;3.40;2.80;;;23.40;60.60;;;;;;6210559;28;84070;-61
2024/01/16 02:24:12;;;;;;;3.05;2.75;;;23.50;60.70;;;;;;6207763;28;83783;-60
2024/01/16 02:27:14;;;;;;;3.05;2.65;;;23.40;60.60;;;;;;6208170;28;83981;-61
2024/01/16 02:30:16;;;;;;;4.32;2.85;;;23.40;60.60;;;;;;6207309;28;83722;-60
2024/01/16 02:33:18;;;;;;;3.70;2.95;;;23.40;60.60;;;;;;6204540;28;83846;-61
2024/01/16 02:36:20;;;;;;;3.15;2.67;;;23.40;60.60;;;;;;6209408;28;84017;-60
2024/01/16 02:39:23;;;;;;;4.10;2.95;;;23.40;60.60;;;;;;6208138;28;84055;-61
2024/01/16 02:42:26;;;;;;;4.93;3.13;;;23.50;60.70;;;;;;6206059;28;84387;-61
2024/01/16 02:45:28;;;;;;;2.92;2.60;;;23.40;60.60;;;;;;6210078;28;84063;-60
2024/01/16 02:48:29;;;;;;;3.22;2.80;;;23.40;60.60;;;;;;6211243;28;84091;-60
2024/01/16 02:51:31;;;;;;;3.08;2.70;;;23.40;60.60;;;;;;6201578;28;84046;-60
2024/01/16 02:54:35;;;;;;;3.00;2.70;;;23.40;60.60;;;;;;6193842;28;82175;-60
2024/01/16 02:57:37;;;;;;;4.45;3.10;;;23.40;60.80;;;;;;6207895;28;83945;-61
2024/01/16 03:00:39;;;;;;;3.45;2.80;;;23.40;60.70;;;;;;6207674;28;83994;-61
2024/01/16 03:03:41;;;;;;;4.60;2.90;;;23.40;60.60;;;;;;6206753;28;84994;-60
2024/01/16 03:06:43;;;;;;;3.88;2.90;;;23.40;60.90;;;;;;6207235;28;83050;-58
2024/01/16 03:09:46;;;;;;;4.50;3.17;;;23.40;61.20;;;;;;6209028;28;84450;-60
2024/01/16 03:12:48;;;;;;;3.42;2.83;;;23.40;61.60;;;;;;6206734;28;84362;-60
2024/01/16 03:15:50;;;;;;;2.90;2.60;;;23.40;61.30;;;;;;6208504;28;82752;-60
2024/01/16 03:18:52;;;;;;;3.50;3.20;;;23.40;61.10;;;;;;6207569;28;84095;-58
2024/01/16 03:21:54;;;;;;;3.92;3.10;;;23.40;61.70;;;;;;6206205;28;82815;-60
2024/01/16 03:24:58;;;;;;;3.25;2.95;;;23.40;61.60;;;;;;6206374;28;83326;-60
2024/01/16 03:28:00;;;;;;;4.80;3.30;;;23.50;60.90;;;;;;6203178;28;84160;-60
2024/01/16 03:31:02;;;;;;;5.03;3.22;;;23.50;60.60;;;;;;6199783;28;84250;-60
2024/01/16 03:34:04;;;;;;;4.93;3.15;;;23.50;60.60;;;;;;6210087;28;84103;-60
2024/01/16 03:37:06;;;;;;;3.80;3.00;;;23.50;60.60;;;;;;6211279;28;84022;-60
2024/01/16 03:40:12;;;;;;;3.75;2.90;;;23.40;60.40;;;;;;6201804;28;83938;-60
2024/01/16 03:43:14;;;;;;;3.78;2.80;;;23.40;60.50;;;;;;6196260;28;84018;-60
2024/01/16 03:46:16;;;;;;;4.07;2.90;;;23.40;60.50;;;;;;6194500;28;82927;-60
2024/01/16 03:49:18;;;;;;;3.28;2.92;;;23.40;60.50;;;;;;6201074;28;84631;-60
2024/01/16 03:52:20;;;;;;;5.35;2.97;;;23.40;60.50;;;;;;6206685;28;84142;-60
2024/01/16 03:55:24;;;;;;;3.05;2.58;;;23.40;60.50;;;;;;6208313;28;83237;-59
2024/01/16 03:58:26;;;;;;;4.00;2.97;;;23.40;60.50;;;;;;6192501;28;84029;-60
2024/01/16 04:01:32;;;;;;;4.03;3.03;;;23.40;60.50;;;;;;6204310;28;82859;-59
2024/01/16 04:04:34;;;;;;;4.80;3.28;;;23.40;60.50;;;;;;6190641;28;84907;-60
2024/01/16 04:07:36;;;;;;;4.60;3.40;;;23.40;60.50;;;;;;6210038;28;84233;-60
2024/01/16 04:10:40;;;;;;;4.35;3.08;;;23.40;60.50;;;;;;6187808;28;84234;-59
2024/01/16 04:13:42;;;;;;;3.55;2.83;;;23.40;60.50;;;;;;6192832;28;82927;-60
2024/01/16 04:16:44;;;;;;;5.95;3.83;;;23.40;60.50;;;;;;6199706;28;84213;-59
2024/01/16 04:19:46;;;;;;;3.70;2.90;;;23.40;60.50;;;;;;6192525;28;84071;-60
2024/01/16 04:22:48;;;;;;;3.10;2.80;;;23.40;60.50;;;;;;6196330;28;84241;-60
2024/01/16 04:25:52;;;;;;;4.10;3.10;;;23.40;60.50;;;;;;6192814;28;83554;-59
2024/01/16 04:28:54;;;;;;;3.50;3.00;;;23.40;60.60;;;;;;6208005;28;81982;-60
2024/01/16 04:31:55;;;;;;;4.25;3.10;;;23.40;60.50;;;;;;6204614;28;85481;-59
2024/01/16 04:34:58;;;;;;;4.03;3.30;;;23.40;60.60;;;;;;6200497;28;84952;-59
2024/01/16 04:37:59;;;;;;;3.45;3.13;;;23.50;60.60;;;;;;6207467;28;84115;-59
2024/01/16 04:41:04;;;;;;;4.68;3.20;;;23.40;60.50;;;;;;6210669;28;84010;-60
2024/01/16 04:44:06;;;;;;;3.05;2.65;;;23.40;60.50;;;;;;6207660;28;84151;-60
2024/01/16 04:47:08;;;;;;;4.10;3.15;;;23.40;60.50;;;;;;6198796;28;84102;-60
2024/01/16 04:50:10;;;;;;;4.82;3.10;;;23.50;60.50;;;;;;6204134;28;84957;-60
2024/01/16 04:53:12;;;;;;;3.75;3.00;;;23.50;60.50;;;;;;6210080;28;83570;-59
2024/01/16 04:56:16;;;;;;;3.95;2.92;;;23.40;60.50;;;;;;6211319;28;83490;-60
2024/01/16 04:59:17;;;;;;;3.58;3.08;;;23.50;60.50;;;;;;6204075;28;84303;-59
2024/01/16 05:02:19;;;;;;;3.95;3.10;;;23.40;60.50;;;;;;6209932;28;84190;-60
2024/01/16 05:05:21;;;;;;;3.70;2.95;;;23.50;60.50;;;;;;6209784;28;84941;-59
2024/01/16 05:08:24;;;;;;;3.60;2.95;;;23.40;60.50;;;;;;6209894;28;84231;-59
2024/01/16 05:11:27;;;;;;;3.63;2.97;;;23.40;60.50;;;;;;6209961;28;84901;-60
2024/01/16 05:14:29;;;;;;;4.22;3.25;;;23.50;60.50;;;;;;6205866;28;84055;-59
2024/01/16 05:17:31;;;;;;;2.90;2.60;;;23.40;60.40;;;;;;6202469;28;84316;-60
2024/01/16 05:20:33;;;;;;;3.33;3.00;;;23.50;60.50;;;;;;6210750;28;83990;-60
2024/01/16 05:23:35;;;;;;;4.38;3.22;;;23.40;60.50;;;;;;6200578;28;85195;-59
2024/01/16 05:26:38;;;;;;;4.28;3.40;;;23.50;60.50;;;;;;6210841;28;83576;-59
2024/01/16 05:29:42;;;;;;;4.07;3.42;;;23.50;60.60;;;;;;6209649;28;84126;-59
2024/01/16 05:32:44;;;;;;;3.17;2.70;;;23.50;60.50;;;;;;6210095;28;84083;-59
2024/01/16 05:35:46;;;;;;;6.45;3.70;;;23.50;60.50;;;;;;6209473;28;84890;-60
2024/01/16 05:38:50;;;;;;;5.00;3.50;;;23.60;60.50;;;;;;6198153;28;83953;-59
2024/01/16 05:41:53;;;;;;;3.70;3.20;;;23.60;60.50;;;;;;6211357;28;83987;-60
2024/01/16 05:44:55;;;;;;;3.45;2.83;;;23.50;60.40;;;;;;6192049;28;86505;-60
2024/01/16 05:47:57;;;;;;;3.63;3.08;;;23.50;60.40;;;;;;6199713;28;83966;-59
2024/01/16 05:50:59;;;;;;;3.42;3.10;;;23.50;60.40;;;;;;6208627;28;82941;-60
2024/01/16 05:54:01;;;;;;;3.50;2.80;;;23.50;60.40;;;;;;6209054;28;82914;-59
2024/01/16 05:57:05;;;;;;;3.85;3.10;;;23.50;60.40;;;;;;6207255;28;82178;-59
2024/01/16 06:00:08;;;;;;;5.93;3.65;;;23.50;60.40;;;;;;6202765;28;84432;-59
2024/01/16 06:03:10;;;;;;;4.57;3.45;;;23.50;60.40;;;;;;6206805;28;84122;-60
2024/01/16 06:06:12;;;;;;;3.80;3.10;;;23.50;60.40;;;;;;6210104;28;84972;-59
2024/01/16 06:09:15;;;;;;;3.47;2.97;;;23.50;60.40;;;;;;6195696;28;84007;-59
2024/01/16 06:12:19;;;;;;;3.75;3.38;;;23.60;62.00;;;;;;6207358;28;84152;-60
2024/01/16 06:15:21;;;;;;;3.50;3.20;;;23.60;62.50;;;;;;6206750;28;84091;-60
2024/01/16 06:18:23;;;;;;;3.83;3.40;;;23.70;61.50;;;;;;6204099;28;83966;-60
2024/01/16 06:21:25;;;;;;;5.35;3.70;;;23.70;61.80;;;;;;6197561;28;84132;-60
2024/01/16 06:24:27;;;;;;;7.65;4.53;;;23.80;61.50;;;;;;6194857;28;83984;-60
2024/01/16 06:27:30;;;;;;;7.13;4.43;;;23.80;61.30;;;;;;6198574;28;83364;-60
2024/01/16 06:30:32;;;;;;;5.40;3.80;;;23.80;61.30;;;;;;6203215;28;84102;-60
2024/01/16 06:33:34;;;;;;;4.95;3.80;;;23.80;61.30;;;;;;6194638;28;84039;-60
2024/01/16 06:36:36;;;;;;;6.57;3.45;;;23.80;61.30;;;;;;6206770;28;84669;-60
2024/01/16 06:39:39;;;;;;;6.53;4.28;;;23.80;61.00;;;;;;6192371;28;83289;-60
2024/01/16 06:42:43;;;;;;;4.60;3.63;;;23.70;60.80;;;;;;6203203;28;84037;-61
2024/01/16 06:45:45;;;;;;;4.80;3.55;;;23.70;60.80;;;;;;6199475;28;84221;-60
2024/01/16 06:48:48;;;;;;;4.93;3.33;;;23.70;60.80;;;;;;6194897;28;84005;-60
2024/01/16 06:51:50;;;;;;;7.32;4.28;;;23.70;60.80;;;;;;6200142;28;84002;-60
2024/01/16 06:54:52;;;;;;;4.28;3.55;;;23.70;60.80;;;;;;6206976;28;84982;-61
2024/01/16 06:57:55;;;;;;;6.15;3.80;;;23.70;60.80;;;;;;6197057;28;84442;-60
2024/01/16 07:00:58;;;;;;;7.25;4.28;;;23.70;60.80;;;;;;6199966;28;84250;-60
2024/01/16 07:04:01;;;;;;;4.43;3.40;;;23.60;60.70;;;;;;6202720;28;83949;-60
2024/01/16 07:07:03;;;;;;;4.05;3.20;;;23.70;60.70;;;;;;6196007;28;84685;-60
2024/01/16 07:10:08;;;;;;;6.47;4.03;;;23.70;60.70;;;;;;6201441;28;83516;-60
2024/01/16 07:13:12;;;;;;;5.63;3.67;;;23.60;60.60;;;;;;6199839;28;84070;-61
2024/01/16 07:16:14;;;;;;;4.60;3.33;;;23.70;60.60;;;;;;6204223;28;83047;-60
2024/01/16 07:19:16;;;;;;;4.60;3.40;;;23.60;60.80;;;;;;6196914;28;83960;-60
2024/01/16 07:22:18;;;;;;;4.63;3.50;;;23.60;60.80;;;;;;6186700;28;84014;-60
2024/01/16 07:25:20;;;;;;;4.35;3.30;;;23.70;61.00;;;;;;6189587;28;84244;-61
2024/01/16 07:28:24;;;;;;;3.25;2.90;;;23.60;61.00;;;;;;6199534;28;84107;-60
2024/01/16 07:31:27;;;;;;;4.25;3.40;;;23.60;61.00;;;;;;6181533;28;84431;-60
2024/01/16 07:34:28;;;;;;;3.83;3.20;;;23.60;60.90;;;;;;6203798;28;84148;-60
2024/01/16 07:37:30;;;;;;;4.35;3.20;;;23.60;61.70;;;;;;6203301;28;85116;-61
2024/01/16 07:40:32;;;;;;;4.65;3.50;;;23.60;60.60;;;;;;6199691;28;82314;-60
2024/01/16 07:43:36;;;;;;;5.90;3.78;;;23.60;60.60;;;;;;6201074;28;84056;-61
2024/01/16 07:46:38;;;;;;;4.78;3.47;;;23.60;60.60;;;;;;6207858;28;84460;-60
2024/01/16 07:49:41;;;;;;;4.25;3.35;;;23.70;60.60;;;;;;6204668;28;83272;-59
2024/01/16 07:52:43;;;;;;;5.20;3.42;;;23.60;60.50;;;;;;6208280;28;83527;-60
2024/01/16 07:55:45;;;;;;;4.60;3.38;;;23.60;60.50;;;;;;6207358;28;82844;-60
2024/01/16 07:58:48;;;;;;;3.08;2.78;;;23.70;60.50;;;;;;6200131;28;83379;-61
2024/01/16 08:01:51;;;;;;;3.35;2.95;;;23.60;60.50;;;;;;6195620;28;84116;-61
2024/01/16 08:04:53;;;;;;;4.28;3.00;;;23.70;60.50;;;;;;6207265;28;84055;-61
2024/01/16 08:07:55;;;;;;;3.35;2.83;;;23.60;60.50;;;;;;6211086;28;85447;-61
2024/01/16 08:10:57;;;;;;;3.80;2.95;;;23.60;60.50;;;;;;6207411;28;84266;-61
2024/01/16 08:14:00;;;;;;;3.47;2.80;;;23.70;60.50;;;;;;6200248;28;82756;-61
2024/01/16 08:17:02;;;;;;;3.83;3.10;;;23.70;60.60;;;;;;6197466;28;84041;-61
2024/01/16 08:20:05;;;;;;;6.18;3.35;;;23.60;60.60;;;;;;6209319;28;82899;-61
2024/01/16 08:23:07;;;;;;;3.13;2.78;;;23.70;60.80;;;;;;6207068;28;82793;-61
2024/01/16 08:26:09;;;;;;;4.53;3.15;;;23.70;60.80;;;;;;6198920;28;83239;-61
2024/01/16 08:29:12;;;;;;;3.50;2.97;;;23.60;60.80;;;;;;6202530;28;82946;-61
2024/01/16 08:32:14;;;;;;;4.22;3.00;;;23.60;60.60;;;;;;6206922;28;82952;-61
2024/01/16 08:35:16;;;;;;;3.13;2.70;;;23.70;60.60;;;;;;6194571;28;84062;-61
2024/01/16 08:38:18;;;;;;;5.60;3.42;;;23.60;60.50;;;;;;6197323;28;85253;-60
2024/01/16 08:41:20;;;;;;;7.45;3.92;;;23.60;60.50;;;;;;6187669;28;82779;-61
2024/01/16 08:44:23;;;;;;;4.50;2.97;;;23.70;60.50;;;;;;6198666;28;84017;-61
2024/01/16 08:47:25;;;;;;;4.00;2.95;;;23.70;60.50;;;;;;6198754;28;83993;-60
2024/01/16 08:50:27;;;;;;;4.60;3.10;;;23.70;60.50;;;;;;6208173;28;83993;-61
2024/01/16 08:53:30;;;;;;;3.67;3.00;;;23.70;60.50;;;;;;6207714;28;82778;-61
2024/01/16 08:56:32;;;;;;;3.65;2.95;;;23.70;60.50;;;;;;6196505;28;84368;-60
2024/01/16 08:59:36;;;;;;;5.97;3.70;;;23.70;60.50;;;;;;6204177;28;83399;-61
2024/01/16 09:02:38;;;;;;;6.63;3.78;;;23.70;60.60;;;;;;6206723;28;82701;-60
2024/01/16 09:05:40;;;;;;;3.90;3.13;;;23.70;60.60;;;;;;6208449;28;82985;-61
2024/01/16 09:08:44;;;;;;;8.52;4.18;;;23.70;60.60;;;;;;6196852;28;85345;-61
2024/01/16 09:11:46;;;;;;;4.88;3.13;;;23.70;60.50;;;;;;6209482;28;84200;-61
2024/01/16 09:14:49;;;;;;;4.28;3.03;;;23.70;60.70;;;;;;6195605;28;84103;-61
2024/01/16 09:17:51;;;;;;;3.30;2.83;;;23.70;60.80;;;;;;6207014;28;84962;-61
2024/01/16 09:20:54;;;;;;;4.10;3.13;;;23.70;60.80;;;;;;6211069;28;84181;-61
2024/01/16 09:23:56;;;;;;;4.32;3.03;;;23.70;60.70;;;;;;6192444;28;82667;-60
2024/01/16 09:26:58;;;;;;;4.50;3.35;;;23.70;60.80;;;;;;6198617;28;84023;-61
2024/01/16 09:30:02;;;;;;;4.22;3.10;;;23.70;60.80;;;;;;6208210;28;83272;-61
2024/01/16 09:33:06;;;;;;;4.03;3.00;;;23.70;60.70;;;;;;6206905;28;84259;-61
2024/01/16 09:36:09;;;;;;;3.55;2.85;;;23.70;60.60;;;;;;6212317;28;83041;-60
2024/01/16 09:39:11;;;;;;;5.40;3.25;;;23.70;60.70;;;;;;6206515;28;84172;-61
2024/01/16 09:42:13;;;;;;;5.90;3.47;;;23.70;60.80;;;;;;6202094;28;83074;-61
2024/01/16 09:45:21;;;;;;;5.00;3.03;;;23.70;60.70;;;;;;6209103;28;82769;-61
2024/01/16 09:48:23;;;;;;;4.78;3.53;;;23.70;60.80;;;;;;6210669;28;83116;-61
2024/01/16 09:51:25;;;;;;;4.50;3.75;;;23.70;61.00;;;;;;6214651;28;84116;-61
2024/01/16 09:54:27;;;;;;;6.07;4.03;;;23.80;61.10;;;;;;6205911;28;82951;-62
2024/01/16 09:57:30;;;;;;;109.50;34.25;;;23.80;61.80;;;;;;6203870;28;83236;-62
2024/01/16 10:00:35;;;;;;;178.25;61.80;;;23.80;64.90;;;;;;6202658;28;84129;-61
2024/01/16 10:03:37;;;;;;;269.40;131.20;;;23.90;70.40;;;;;;6202125;28;85257;-61
2024/01/16 10:06:40;;;;;;;495.98;415.17;;;24.00;73.30;;;;;;6203909;28;85425;-61
2024/01/16 10:09:42;;;;;;;227.25;160.68;;;24.20;71.80;;;;;;6211465;28;85488;-61
2024/01/16 10:12:45;;;;;;;165.88;108.35;;;24.40;68.30;;;;;;6201683;28;86377;-61
2024/01/16 10:15:50;;;;;;;108.43;67.45;;;24.60;66.50;;;;;;6203822;28;87129;-61
2024/01/16 10:19:04;;;;;;;86.30;54.85;;;25.00;64.10;;;;;;6214278;28;84067;-61
2024/01/16 10:22:07;;;;;;;69.25;49.40;;;25.30;62.50;;;;;;6201808;28;82878;-61
2024/01/16 10:25:11;;;;;;;69.28;44.05;;;25.50;61.70;;;;;;6186215;28;83944;-60
2024/01/16 10:28:20;;;;;;;60.85;39.42;;;25.50;61.10;;;;;;6192486;28;82888;-61
2024/01/16 10:31:31;;;;;;;59.17;37.40;;;25.50;60.70;;;;;;6207073;28;85406;-61
2024/01/16 10:34:33;;;;;;;54.70;34.42;;;25.50;60.70;;;;;;6196608;28;84147;-61
2024/01/16 10:37:48;;;;;;;52.35;32.60;;;25.30;60.70;;;;;;6206858;28;83229;-61
2024/01/16 10:41:05;;;;;;;49.85;31.52;;;25.30;61.00;;;;;;6205756;28;85093;-61
2024/01/16 10:44:08;;;;;;;43.20;28.60;;;25.20;61.10;;;;;;6187829;28;83918;-61
2024/01/16 10:47:12;;;;;;;43.28;28.50;;;25.10;61.00;;;;;;6211447;28;83003;-61
2024/01/16 10:50:15;;;;;;;49.38;27.55;;;25.10;61.10;;;;;;6199249;28;82931;-61
2024/01/16 10:53:22;;;;;;;39.80;25.13;;;25.00;61.00;;;;;;6218394;28;84100;-61
2024/01/16 10:56:25;;;;;;;34.35;23.23;;;25.00;61.10;;;;;;6201044;28;84071;-61
2024/01/16 10:59:34;;;;;;;35.40;23.63;;;24.90;61.20;;;;;;6204787;28;82852;-61
2024/01/16 11:02:44;;;;;;;36.92;22.77;;;24.80;61.20;;;;;;6208948;28;83295;-62
2024/01/16 11:05:48;;;;;;;34.30;21.80;;;24.80;61.30;;;;;;6200145;28;82746;-61
2024/01/16 11:08:51;;;;;;;30.35;20.42;;;24.80;61.30;;;;;;6206533;28;82965;-60
2024/01/16 11:11:56;;;;;;;30.52;19.90;;;24.70;61.30;;;;;;6192887;28;83003;-60
2024/01/16 11:15:01;;;;;;;31.80;19.33;;;24.70;61.50;;;;;;6207002;28;83501;-60
2024/01/16 11:18:07;;;;;;;27.25;18.70;;;24.70;61.50;;;;;;6205675;28;83969;-61
2024/01/16 11:21:12;;;;;;;25.60;17.65;;;24.60;61.50;;;;;;6211921;28;82812;-61
2024/01/16 11:24:14;;;;;;;23.20;16.63;;;24.60;61.50;;;;;;6211495;28;83568;-61
2024/01/16 11:27:24;;;;;;;23.35;16.70;;;24.60;61.50;;;;;;6215523;28;84409;-61
2024/01/16 11:30:31;;;;;;;25.17;15.75;;;24.60;61.60;;;;;;6211511;28;84482;-60
2024/01/16 11:33:47;;;;;;;24.38;15.50;;;24.50;61.60;;;;;;6210618;28;82762;-61
2024/01/16 11:36:55;;;;;;;23.60;15.00;;;24.50;61.50;;;;;;6210420;28;83102;-60
2024/01/16 11:40:26;;;;;;;22.60;15.32;;;24.50;61.50;;;;;;6207824;28;83524;-61
2024/01/16 11:43:38;;;;;;;20.17;14.40;;;24.50;61.60;;;;;;6210519;28;85430;-61
2024/01/16 11:47:01;;;;;;;22.55;14.82;;;24.50;61.60;;;;;;6207622;28;85224;-60
2024/01/16 11:50:11;;;;;;;18.60;13.60;;;24.50;61.60;;;;;;6203332;28;83923;-59
2024/01/16 11:53:37;;;;;;;18.67;13.30;;;24.50;61.60;;;;;;6207050;28;83968;-60
2024/01/16 11:57:11;;;;;;;18.50;12.75;;;24.40;61.60;;;;;;6206662;28;83985;-60
2024/01/16 12:00:21;;;;;;;17.13;12.18;;;24.50;61.80;;;;;;6204470;28;84334;-60
2024/01/16 12:03:24;;;;;;;20.80;12.80;;;24.50;61.80;;;;;;6210959;28;83330;-60
2024/01/16 12:06:27;;;;;;;20.92;12.60;;;24.50;61.80;;;;;;6213867;28;83083;-60
2024/01/16 12:09:30;;;;;;;17.65;12.43;;;24.40;61.90;;;;;;6214635;28;84154;-61
2024/01/16 12:12:32;;;;;;;19.63;11.82;;;24.40;61.90;;;;;;6199395;28;84476;-60
2024/01/16 12:15:34;;;;;;;14.98;11.15;;;24.40;61.80;;;;;;6201024;28;84317;-61
2024/01/16 12:18:36;;;;;;;14.90;10.80;;;24.30;61.70;;;;;;6217128;28;84115;-58
2024/01/16 12:21:41;;;;;;;15.32;10.82;;;24.40;61.80;;;;;;6216587;28;84486;-59
2024/01/16 12:24:43;;;;;;;15.55;11.02;;;24.40;61.80;;;;;;6205636;28;83553;-60
2024/01/16 12:27:46;;;;;;;15.15;9.55;;;24.40;61.80;;;;;;6209709;28;83863;-61
2024/01/16 12:30:51;;;;;;;11.98;8.00;;;24.30;61.60;;;;;;6204321;28;83987;-60
2024/01/16 12:33:53;;;;;;;11.52;7.95;;;24.40;61.30;;;;;;6214776;28;82927;-60
2024/01/16 12:37:06;;;;;;;13.02;7.90;;;24.40;61.10;;;;;;6207759;28;82278;-60
2024/01/16 12:40:09;;;;;;;13.25;8.07;;;24.30;61.10;;;;;;6204695;28;83939;-60
2024/01/16 12:43:11;;;;;;;12.02;8.13;;;24.30;61.10;;;;;;6197024;28;84090;-60
2024/01/16 12:46:13;;;;;;;10.95;7.45;;;24.30;61.10;;;;;;6212878;28;85110;-60
2024/01/16 12:49:15;;;;;;;10.45;7.43;;;24.30;61.20;;;;;;6195910;28;82989;-59
2024/01/16 12:52:25;;;;;;;9.10;6.82;;;24.30;61.30;;;;;;6202597;28;84029;-59
2024/01/16 12:55:27;;;;;;;13.95;8.02;;;24.30;61.50;;;;;;6200673;28;84076;-60
2024/01/16 12:58:34;;;;;;;13.70;8.05;;;24.30;63.20;;;;;;6205304;28;82968;-59
2024/01/16 13:01:36;;;;;;;11.65;7.15;;;24.20;62.20;;;;;;6207967;28;82960;-60
2024/01/16 13:04:38;;;;;;;10.00;6.97;;;24.20;62.00;;;;;;6205786;28;83972;-61
2024/01/16 13:07:42;;;;;;;9.02;6.45;;;24.20;61.90;;;;;;6187259;28;83207;-60
2024/01/16 13:10:44;;;;;;;9.18;6.70;;;24.20;61.80;;;;;;6185845;28;84103;-60
2024/01/16 13:13:46;;;;;;;8.55;6.22;;;24.20;61.80;;;;;;6182039;28;84003;-60
2024/01/16 13:16:48;;;;;;;10.00;6.45;;;24.20;61.80;;;;;;6176405;28;84947;-60
2024/01/16 13:19:50;;;;;;;10.88;6.80;;;24.10;61.70;;;;;;6173656;28;84091;-60
2024/01/16 13:22:54;;;;;;;7.43;5.85;;;24.20;61.70;;;;;;6169203;28;83055;-60
2024/01/16 13:25:59;;;;;;;7.82;5.80;;;24.20;61.70;;;;;;6177179;28;84029;-60
2024/01/16 13:29:01;;;;;;;9.13;6.05;;;24.20;61.80;;;;;;6173816;28;84375;-60
2024/01/16 13:32:04;;;;;;;9.23;5.88;;;24.10;61.60;;;;;;6175662;28;84194;-60
2024/01/16 13:35:08;;;;;;;7.25;5.60;;;24.10;61.60;;;;;;6175019;28;83283;-60
2024/01/16 13:38:13;;;;;;;7.90;5.40;;;24.10;61.60;;;;;;6174278;28;83296;-60
2024/01/16 13:41:15;;;;;;;7.50;5.30;;;24.10;61.60;;;;;;6182361;28;83910;-60
2024/01/16 13:44:17;;;;;;;9.05;5.53;;;24.10;62.00;;;;;;6172474;28;84429;-60
2024/01/16 13:47:19;;;;;;;10.25;6.05;;;24.10;62.70;;;;;;6180518;28;85014;-60
2024/01/16 13:50:22;;;;;;;8.07;5.25;;;24.00;62.70;;;;;;6186193;28;84078;-60
2024/01/16 13:53:25;;;;;;;8.23;5.20;;;24.00;62.80;;;;;;6179747;28;84343;-60
2024/01/16 13:56:27;;;;;;;6.32;4.60;;;24.00;62.70;;;;;;6181135;28;84028;-60
2024/01/16 13:59:29;;;;;;;7.20;4.90;;;24.00;62.80;;;;;;6181412;28;83716;-60
2024/01/16 14:02:38;;;;;;;6.38;4.22;;;24.00;62.50;;;;;;6184037;28;84043;-60
2024/01/16 14:05:43;;;;;;;7.13;4.85;;;23.90;62.30;;;;;;6186835;28;82862;-60
2024/01/16 14:08:46;;;;;;;8.38;4.72;;;24.00;62.30;;;;;;6180813;28;82042;-60
2024/01/16 14:11:48;;;;;;;7.50;4.57;;;24.00;62.30;;;;;;6177203;28;84005;-60
2024/01/16 14:14:50;;;;;;;6.97;4.30;;;24.00;62.30;;;;;;6183147;28;84953;-60
2024/01/16 14:17:54;;;;;;;8.10;4.72;;;23.90;62.20;;;;;;6189109;28;84991;-60
2024/01/16 14:20:55;;;;;;;6.05;4.22;;;24.00;63.20;;;;;;6193188;28;82827;-60
2024/01/16 14:23:59;;;;;;;5.35;4.25;;;24.00;62.20;;;;;;6184432;28;82995;-60
2024/01/16 14:27:01;;;;;;;6.82;4.18;;;23.90;62.20;;;;;;6182661;28;82923;-60
2024/01/16 14:30:03;;;;;;;5.20;4.00;;;24.00;62.20;;;;;;6175528;28;82913;-60
2024/01/16 14:33:08;;;;;;;6.28;3.92;;;24.00;62.20;;;;;;6187370;28;84028;-60
2024/01/16 14:36:10;;;;;;;4.97;3.60;;;24.00;62.20;;;;;;6180200;28;84151;-60
2024/01/16 14:39:17;;;;;;;7.65;4.05;;;24.00;62.10;;;;;;6177139;28;83371;-60
2024/01/16 14:42:19;;;;;;;5.22;3.95;;;24.00;62.20;;;;;;6171704;28;84271;-61
2024/01/16 14:45:21;;;;;;;7.97;4.00;;;23.90;62.20;;;;;;6175073;28;84053;-60
2024/01/16 14:48:23;;;;;;;5.95;3.83;;;23.90;62.40;;;;;;6175886;28;85077;-60
2024/01/16 14:51:26;;;;;;;5.53;3.50;;;23.90;62.50;;;;;;6162383;28;82433;-61
2024/01/16 14:54:29;;;;;;;4.50;3.10;;;23.90;62.50;;;;;;6168349;28;83087;-60
2024/01/16 14:57:37;;;;;;;5.03;3.60;;;23.90;62.50;;;;;;6174638;28;84121;-60
2024/01/16 15:00:39;;;;;;;6.55;3.47;;;23.90;63.00;;;;;;6164836;28;84051;-60
2024/01/16 15:03:42;;;;;;;4.55;3.40;;;23.90;62.80;;;;;;6184748;28;84080;-60
2024/01/16 15:06:44;;;;;;;4.93;3.42;;;23.90;62.70;;;;;;6184856;28;83040;-60
2024/01/16 15:09:47;;;;;;;5.45;3.60;;;23.90;62.60;;;;;;6176614;28;83247;-60
2024/01/16 15:12:51;;;;;;;4.05;3.30;;;23.90;62.50;;;;;;6193451;28;83653;-61
2024/01/16 15:15:54;;;;;;;5.30;3.47;;;23.90;62.60;;;;;;6171541;28;84046;-61
2024/01/16 15:18:56;;;;;;;5.18;3.50;;;23.90;62.60;;;;;;6177623;28;84065;-60
2024/01/16 15:21:58;;;;;;;6.00;3.85;;;23.90;62.60;;;;;;6174162;28;84442;-60
2024/01/16 15:25:02;;;;;;;5.10;3.60;;;23.80;62.50;;;;;;6174883;28;84073;-60
2024/01/16 15:28:04;;;;;;;3.90;3.08;;;23.90;62.60;;;;;;6165381;28;83987;-60
2024/01/16 15:31:07;;;;;;;5.38;3.35;;;23.90;62.60;;;;;;6183527;28;83815;-60
2024/01/16 15:34:09;;;;;;;4.57;3.22;;;23.90;62.60;;;;;;6172241;28;84179;-60
2024/01/16 15:37:11;;;;;;;4.38;3.22;;;23.90;62.70;;;;;;6171697;28;83209;-60
2024/01/16 15:40:15;;;;;;;5.63;3.35;;;23.90;62.60;;;;;;6179916;28;83284;-60
2024/01/16 15:43:18;;;;;;;5.20;3.55;;;23.90;62.60;;;;;;6168343;28;82896;-61
2024/01/16 15:46:20;;;;;;;6.03;3.40;;;23.90;62.50;;;;;;6182644;28;82979;-61
2024/01/16 15:49:22;;;;;;;4.43;3.30;;;23.90;62.50;;;;;;6198294;28;85396;-61